TVS5ZW LROP-LKPR
Flight info
| Callsign | TVS5ZW |
|---|---|
| Flight time | 1h 40m |
| Altitude | 38000 |
| Route | SOKRU1K/08L SOKRU DCT OXDOC DCT BUDOP DCT PATAK DCT LALES DCT TUMKA DCT VLM |
| Aircraft | B738/M-SDFGHIJ1LORVWXYZ/LB1 |
Departure
| Time | 2026-05-06 17:55 |
|---|---|
| Airport | Bucharest Henri Coandă International Airport (LROP) |
Arrival
| Time | 2026-05-06 19:36 |
|---|---|
| Airport | Václav Havel Airport Prague (LKPR) |
| Time | Latitude | Longitude | Altitude | Speed | Heading |
|---|---|---|---|---|---|
| 2026-05-06 17:14 | 44.57020 | 26.08026 | 294 ft | 0 kts | 354° |
| 2026-05-06 17:42 | 44.57019 | 26.08026 | 321 ft | 2 kts | 354° |
| 2026-05-06 17:42 | 44.56995 | 26.08029 | 321 ft | 4 kts | 354° |
| 2026-05-06 17:42 | 44.56968 | 26.08033 | 319 ft | 3 kts | 354° |
| 2026-05-06 17:43 | 44.56947 | 26.08034 | 320 ft | 4 kts | 18° |
| 2026-05-06 17:43 | 44.56929 | 26.08014 | 321 ft | 4 kts | 73° |
| 2026-05-06 17:43 | 44.56925 | 26.07979 | 321 ft | 4 kts | 84° |
| 2026-05-06 17:43 | 44.56922 | 26.07944 | 320 ft | 4 kts | 84° |
| 2026-05-06 17:44 | 44.56922 | 26.07937 | 320 ft | 1 kts | 84° |
| 2026-05-06 17:48 | 44.56922 | 26.07938 | 320 ft | 1 kts | 84° |
| 2026-05-06 17:49 | 44.56924 | 26.07965 | 321 ft | 6 kts | 84° |
| 2026-05-06 17:49 | 44.56930 | 26.08054 | 321 ft | 12 kts | 84° |
| 2026-05-06 17:49 | 44.56941 | 26.08199 | 322 ft | 17 kts | 84° |
| 2026-05-06 17:49 | 44.56945 | 26.08360 | 321 ft | 14 kts | 111° |
| 2026-05-06 17:50 | 44.56895 | 26.08463 | 322 ft | 13 kts | 92° |
| 2026-05-06 17:50 | 44.56946 | 26.08544 | 321 ft | 13 kts | 0° |
| 2026-05-06 17:50 | 44.57033 | 26.08534 | 321 ft | 12 kts | 354° |
| 2026-05-06 17:50 | 44.57112 | 26.08523 | 322 ft | 14 kts | 354° |
| 2026-05-06 17:51 | 44.57214 | 26.08508 | 322 ft | 16 kts | 354° |
| 2026-05-06 17:51 | 44.57329 | 26.08491 | 320 ft | 17 kts | 354° |
| 2026-05-06 17:51 | 44.57446 | 26.08474 | 321 ft | 17 kts | 354° |
| 2026-05-06 17:51 | 44.57536 | 26.08461 | 321 ft | 6 kts | 353° |
| 2026-05-06 17:52 | 44.57542 | 26.08460 | 322 ft | 0 kts | 353° |
| 2026-05-06 17:53 | 44.57558 | 26.08458 | 322 ft | 6 kts | 353° |
| 2026-05-06 17:53 | 44.57623 | 26.08451 | 322 ft | 12 kts | 359° |
| 2026-05-06 17:54 | 44.57668 | 26.08521 | 323 ft | 8 kts | 84° |
| 2026-05-06 17:54 | 44.57669 | 26.08523 | 323 ft | 0 kts | 84° |
| 2026-05-06 17:54 | 44.57671 | 26.08563 | 323 ft | 21 kts | 84° |
| 2026-05-06 17:54 | 44.57714 | 26.09122 | 319 ft | 93 kts | 84° |
| 2026-05-06 17:55 | 44.57803 | 26.10328 | 332 ft | 152 kts | 85° |
| 2026-05-06 17:55 | 44.57907 | 26.11887 | 808 ft | 163 kts | 86° |
| 2026-05-06 17:55 | 44.58014 | 26.13509 | 1467 ft | 169 kts | 88° |
| 2026-05-06 17:55 | 44.58127 | 26.15179 | 2135 ft | 186 kts | 87° |
| 2026-05-06 17:56 | 44.58288 | 26.17140 | 2399 ft | 215 kts | 86° |
| 2026-05-06 17:56 | 44.58472 | 26.19250 | 2837 ft | 227 kts | 84° |
| 2026-05-06 17:56 | 44.59019 | 26.21399 | 3279 ft | 243 kts | 56° |
| 2026-05-06 17:56 | 44.60332 | 26.22892 | 3964 ft | 246 kts | 22° |
| 2026-05-06 17:57 | 44.62060 | 26.23243 | 4499 ft | 262 kts | 352° |
| 2026-05-06 17:57 | 44.63838 | 26.22621 | 5323 ft | 266 kts | 343° |
| 2026-05-06 17:57 | 44.65594 | 26.21787 | 6232 ft | 268 kts | 339° |
| 2026-05-06 17:57 | 44.67117 | 26.20264 | 7032 ft | 274 kts | 307° |
| 2026-05-06 17:58 | 44.68049 | 26.17924 | 7880 ft | 276 kts | 297° |
| 2026-05-06 17:58 | 44.68883 | 26.15485 | 8727 ft | 280 kts | 296° |
| 2026-05-06 17:58 | 44.69725 | 26.12996 | 9553 ft | 283 kts | 297° |
| 2026-05-06 17:58 | 44.70581 | 26.10490 | 10343 ft | 287 kts | 297° |
| 2026-05-06 17:59 | 44.71490 | 26.07868 | 10593 ft | 311 kts | 297° |
| 2026-05-06 17:59 | 44.72486 | 26.05032 | 10817 ft | 334 kts | 297° |
| 2026-05-06 17:59 | 44.73537 | 26.02060 | 11333 ft | 344 kts | 297° |
| 2026-05-06 17:59 | 44.74614 | 25.99025 | 12052 ft | 348 kts | 297° |
| 2026-05-06 18:00 | 44.75699 | 25.95977 | 12798 ft | 352 kts | 297° |
| 2026-05-06 18:00 | 44.76791 | 25.92916 | 13534 ft | 356 kts | 297° |
| 2026-05-06 18:00 | 44.77926 | 25.89738 | 14175 ft | 361 kts | 298° |
| 2026-05-06 18:00 | 44.79057 | 25.86571 | 14847 ft | 364 kts | 297° |
| 2026-05-06 18:01 | 44.80200 | 25.83368 | 15517 ft | 368 kts | 297° |
| 2026-05-06 18:01 | 44.81352 | 25.80136 | 16140 ft | 372 kts | 297° |
| 2026-05-06 18:01 | 44.82502 | 25.76907 | 16817 ft | 374 kts | 297° |
| 2026-05-06 18:01 | 44.83722 | 25.73602 | 17473 ft | 378 kts | 301° |
| 2026-05-06 18:02 | 44.85246 | 25.70574 | 18137 ft | 380 kts | 308° |
| 2026-05-06 18:02 | 44.86857 | 25.67663 | 18715 ft | 383 kts | 309° |
| 2026-05-06 18:02 | 44.88511 | 25.64727 | 19350 ft | 383 kts | 309° |
| 2026-05-06 18:02 | 44.90173 | 25.61774 | 19924 ft | 386 kts | 309° |
| 2026-05-06 18:03 | 44.91839 | 25.58791 | 20433 ft | 390 kts | 308° |
| 2026-05-06 18:03 | 44.93525 | 25.55747 | 20966 ft | 393 kts | 308° |
| 2026-05-06 18:03 | 44.95196 | 25.52712 | 21558 ft | 395 kts | 308° |
| 2026-05-06 18:03 | 44.96884 | 25.49629 | 22104 ft | 397 kts | 308° |
| 2026-05-06 18:04 | 44.98581 | 25.46520 | 22656 ft | 399 kts | 308° |
| 2026-05-06 18:04 | 45.00276 | 25.43405 | 23172 ft | 402 kts | 308° |
| 2026-05-06 18:04 | 45.01984 | 25.40262 | 23675 ft | 404 kts | 308° |
| 2026-05-06 18:04 | 45.03700 | 25.37099 | 24117 ft | 406 kts | 308° |
| 2026-05-06 18:05 | 45.05417 | 25.33930 | 24588 ft | 407 kts | 308° |
| 2026-05-06 18:05 | 45.06979 | 25.31044 | 24996 ft | 408 kts | 308° |
| 2026-05-06 18:05 | 45.08664 | 25.27928 | 25414 ft | 409 kts | 308° |
| 2026-05-06 18:05 | 45.10399 | 25.24717 | 25841 ft | 411 kts | 308° |
| 2026-05-06 18:06 | 45.12131 | 25.21508 | 26264 ft | 412 kts | 308° |
| 2026-05-06 18:06 | 45.13877 | 25.18267 | 26665 ft | 414 kts | 308° |
| 2026-05-06 18:06 | 45.15625 | 25.15022 | 27076 ft | 415 kts | 308° |
| 2026-05-06 18:06 | 45.17379 | 25.11761 | 27482 ft | 416 kts | 308° |
| 2026-05-06 18:07 | 45.19126 | 25.08507 | 27859 ft | 418 kts | 308° |
| 2026-05-06 18:07 | 45.20897 | 25.05206 | 28236 ft | 419 kts | 308° |
| 2026-05-06 18:07 | 45.22662 | 25.01914 | 28592 ft | 421 kts | 308° |
| 2026-05-06 18:07 | 45.24434 | 24.98602 | 28928 ft | 423 kts | 308° |
| 2026-05-06 18:08 | 45.26216 | 24.95269 | 29293 ft | 424 kts | 308° |
| 2026-05-06 18:08 | 45.28004 | 24.91922 | 29643 ft | 425 kts | 308° |
| 2026-05-06 18:08 | 45.29794 | 24.88566 | 29967 ft | 427 kts | 308° |
| 2026-05-06 18:08 | 45.31591 | 24.85195 | 30251 ft | 428 kts | 308° |
| 2026-05-06 18:09 | 45.33383 | 24.81826 | 30604 ft | 427 kts | 308° |
| 2026-05-06 18:09 | 45.35143 | 24.78514 | 31038 ft | 424 kts | 308° |
| 2026-05-06 18:09 | 45.36933 | 24.75143 | 31478 ft | 420 kts | 308° |
| 2026-05-06 18:09 | 45.38666 | 24.71876 | 31864 ft | 418 kts | 307° |
| 2026-05-06 18:10 | 45.40436 | 24.68534 | 32201 ft | 418 kts | 307° |
| 2026-05-06 18:10 | 45.42172 | 24.65252 | 32545 ft | 416 kts | 307° |
| 2026-05-06 18:10 | 45.43897 | 24.61988 | 32912 ft | 414 kts | 307° |
| 2026-05-06 18:10 | 45.45647 | 24.58672 | 33242 ft | 413 kts | 307° |
| 2026-05-06 18:11 | 45.47371 | 24.55403 | 33587 ft | 412 kts | 307° |
| 2026-05-06 18:11 | 45.49062 | 24.52192 | 33976 ft | 409 kts | 307° |
| 2026-05-06 18:11 | 45.50763 | 24.48958 | 34283 ft | 408 kts | 307° |
| 2026-05-06 18:11 | 45.52467 | 24.45715 | 34484 ft | 409 kts | 307° |
| 2026-05-06 18:12 | 45.54176 | 24.42460 | 34674 ft | 410 kts | 307° |
| 2026-05-06 18:12 | 45.55881 | 24.39206 | 34969 ft | 409 kts | 307° |
| 2026-05-06 18:12 | 45.57582 | 24.35956 | 35302 ft | 408 kts | 307° |
| 2026-05-06 18:12 | 45.59275 | 24.32720 | 35537 ft | 408 kts | 307° |
| 2026-05-06 18:13 | 45.60969 | 24.29478 | 35766 ft | 408 kts | 307° |
| 2026-05-06 18:13 | 45.62665 | 24.26228 | 36006 ft | 408 kts | 307° |
| 2026-05-06 18:13 | 45.64352 | 24.22991 | 36226 ft | 407 kts | 307° |
| 2026-05-06 18:13 | 45.66043 | 24.19743 | 36436 ft | 407 kts | 307° |
| 2026-05-06 18:14 | 45.67734 | 24.16493 | 36663 ft | 407 kts | 307° |
| 2026-05-06 18:14 | 45.69418 | 24.13249 | 36930 ft | 405 kts | 306° |
| 2026-05-06 18:14 | 45.71090 | 24.10027 | 37117 ft | 404 kts | 306° |
| 2026-05-06 18:14 | 45.72774 | 24.06777 | 37282 ft | 405 kts | 306° |
| 2026-05-06 18:15 | 45.74449 | 24.03542 | 37451 ft | 406 kts | 306° |
| 2026-05-06 18:15 | 45.76126 | 24.00299 | 37657 ft | 405 kts | 306° |
| 2026-05-06 18:15 | 45.77800 | 23.97057 | 37872 ft | 404 kts | 306° |
| 2026-05-06 18:15 | 45.79468 | 23.93824 | 37968 ft | 406 kts | 306° |
| 2026-05-06 18:16 | 45.82838 | 23.87281 | 37971 ft | 407 kts | 306° |
| 2026-05-06 18:16 | 45.86178 | 23.80780 | 37973 ft | 403 kts | 306° |
| 2026-05-06 18:17 | 45.89472 | 23.74355 | 37968 ft | 401 kts | 306° |
| 2026-05-06 18:17 | 45.92778 | 23.67947 | 37976 ft | 399 kts | 307° |
| 2026-05-06 18:18 | 45.94816 | 23.65433 | 37894 ft | 398 kts | 344° |
| 2026-05-06 18:18 | 45.97448 | 23.64238 | 37895 ft | 397 kts | 328° |
| 2026-05-06 18:18 | 45.99584 | 23.61681 | 37041 ft | 410 kts | 315° |
| 2026-05-06 18:18 | 46.01515 | 23.58687 | 36823 ft | 406 kts | 307° |
| 2026-05-06 18:19 | 46.02894 | 23.55170 | 36629 ft | 404 kts | 292° |
| 2026-05-06 18:19 | 46.03851 | 23.51355 | 36567 ft | 406 kts | 291° |
| 2026-05-06 18:19 | 46.06010 | 23.43823 | 36464 ft | 409 kts | 298° |
| 2026-05-06 18:20 | 46.07359 | 23.40239 | 36590 ft | 409 kts | 301° |
| 2026-05-06 18:20 | 46.08854 | 23.36740 | 36824 ft | 408 kts | 303° |
| 2026-05-06 18:20 | 46.10429 | 23.33340 | 37059 ft | 407 kts | 304° |
| 2026-05-06 18:20 | 46.12049 | 23.30001 | 37279 ft | 406 kts | 305° |
| 2026-05-06 18:21 | 46.13697 | 23.26693 | 37443 ft | 406 kts | 306° |
| 2026-05-06 18:21 | 46.15354 | 23.23401 | 37682 ft | 405 kts | 306° |
| 2026-05-06 18:21 | 46.17009 | 23.20124 | 37892 ft | 404 kts | 306° |
| 2026-05-06 18:21 | 46.18661 | 23.16845 | 37971 ft | 405 kts | 306° |
| 2026-05-06 18:22 | 46.21983 | 23.10233 | 37977 ft | 407 kts | 304° |
| 2026-05-06 18:22 | 46.25272 | 23.03626 | 37963 ft | 405 kts | 305° |
| 2026-05-06 18:23 | 46.28520 | 22.96993 | 37983 ft | 402 kts | 304° |
| 2026-05-06 18:23 | 46.31773 | 22.90508 | 37994 ft | 401 kts | 305° |
| 2026-05-06 18:24 | 46.35062 | 22.83939 | 37991 ft | 400 kts | 305° |
| 2026-05-06 18:24 | 46.38318 | 22.77380 | 37987 ft | 400 kts | 305° |
| 2026-05-06 18:25 | 46.41540 | 22.70862 | 37984 ft | 401 kts | 304° |
| 2026-05-06 18:25 | 46.44793 | 22.64262 | 37987 ft | 403 kts | 304° |
| 2026-05-06 18:26 | 46.48054 | 22.57630 | 37978 ft | 405 kts | 304° |
| 2026-05-06 18:26 | 46.51328 | 22.50956 | 37975 ft | 407 kts | 304° |
| 2026-05-06 18:27 | 46.54606 | 22.44260 | 37974 ft | 408 kts | 304° |
| 2026-05-06 18:27 | 46.57888 | 22.37538 | 37971 ft | 409 kts | 304° |
| 2026-05-06 18:28 | 46.61176 | 22.30786 | 37966 ft | 410 kts | 303° |
| 2026-05-06 18:28 | 46.64470 | 22.24006 | 37970 ft | 409 kts | 303° |
| 2026-05-06 18:29 | 46.67750 | 22.17241 | 37957 ft | 409 kts | 303° |
| 2026-05-06 18:29 | 46.71025 | 22.10468 | 37942 ft | 409 kts | 303° |
| 2026-05-06 18:30 | 46.74297 | 22.03685 | 37938 ft | 408 kts | 303° |
| 2026-05-06 18:30 | 46.77560 | 21.96902 | 37938 ft | 408 kts | 303° |
| 2026-05-06 18:31 | 46.80813 | 21.90124 | 37940 ft | 408 kts | 303° |
| 2026-05-06 18:31 | 46.84063 | 21.83336 | 37937 ft | 408 kts | 303° |
| 2026-05-06 18:32 | 46.87303 | 21.76552 | 37937 ft | 408 kts | 303° |
| 2026-05-06 18:32 | 46.90546 | 21.69747 | 37916 ft | 408 kts | 302° |
| 2026-05-06 18:33 | 46.93768 | 21.62968 | 37940 ft | 408 kts | 302° |
| 2026-05-06 18:33 | 46.97008 | 21.56133 | 37930 ft | 409 kts | 302° |
| 2026-05-06 18:34 | 47.00249 | 21.49282 | 37925 ft | 410 kts | 302° |
| 2026-05-06 18:34 | 47.03494 | 21.42404 | 37920 ft | 411 kts | 302° |
| 2026-05-06 18:35 | 47.06745 | 21.35497 | 37919 ft | 412 kts | 302° |
| 2026-05-06 18:35 | 47.10002 | 21.28558 | 37916 ft | 413 kts | 302° |
| 2026-05-06 18:36 | 47.12710 | 21.22776 | 37919 ft | 414 kts | 302° |
| 2026-05-06 18:36 | 47.15969 | 21.15803 | 37913 ft | 414 kts | 302° |
| 2026-05-06 18:37 | 47.19226 | 21.08817 | 37910 ft | 415 kts | 302° |
| 2026-05-06 18:37 | 47.22487 | 21.01804 | 37906 ft | 415 kts | 301° |
| 2026-05-06 18:38 | 47.25749 | 20.94769 | 37898 ft | 416 kts | 301° |
| 2026-05-06 18:38 | 47.29001 | 20.87738 | 37900 ft | 416 kts | 301° |
| 2026-05-06 18:39 | 47.32253 | 20.80691 | 37897 ft | 416 kts | 301° |
| 2026-05-06 18:40 | 47.37120 | 20.70109 | 37895 ft | 415 kts | 301° |
| 2026-05-06 18:40 | 47.40349 | 20.63064 | 37889 ft | 415 kts | 301° |
| 2026-05-06 18:41 | 47.43562 | 20.56038 | 37903 ft | 415 kts | 301° |
| 2026-05-06 18:41 | 47.46804 | 20.48928 | 37895 ft | 415 kts | 301° |
| 2026-05-06 18:42 | 47.50019 | 20.41861 | 37886 ft | 415 kts | 301° |
| 2026-05-06 18:42 | 47.53236 | 20.34771 | 37885 ft | 415 kts | 301° |
| 2026-05-06 18:43 | 47.56451 | 20.27666 | 37888 ft | 415 kts | 301° |
| 2026-05-06 18:43 | 47.59664 | 20.20548 | 37887 ft | 415 kts | 301° |
| 2026-05-06 18:44 | 47.62862 | 20.13444 | 37888 ft | 415 kts | 301° |
| 2026-05-06 18:44 | 47.66049 | 20.06346 | 37896 ft | 416 kts | 300° |
| 2026-05-06 18:45 | 47.69309 | 19.99250 | 37898 ft | 419 kts | 303° |
| 2026-05-06 18:45 | 47.72945 | 19.92446 | 37892 ft | 421 kts | 306° |
| 2026-05-06 18:46 | 47.76646 | 19.85699 | 37896 ft | 422 kts | 305° |
| 2026-05-06 18:46 | 47.80328 | 19.78873 | 37897 ft | 423 kts | 305° |
| 2026-05-06 18:47 | 47.83971 | 19.72029 | 37894 ft | 424 kts | 304° |
| 2026-05-06 18:47 | 47.87627 | 19.65115 | 37887 ft | 424 kts | 304° |
| 2026-05-06 18:48 | 47.91268 | 19.58208 | 37889 ft | 425 kts | 304° |
| 2026-05-06 18:48 | 47.94922 | 19.51260 | 37884 ft | 425 kts | 304° |
| 2026-05-06 18:49 | 47.98564 | 19.44319 | 37901 ft | 425 kts | 304° |
| 2026-05-06 18:49 | 48.02218 | 19.37339 | 37877 ft | 425 kts | 304° |
| 2026-05-06 18:50 | 48.05839 | 19.30402 | 37885 ft | 425 kts | 304° |
| 2026-05-06 18:50 | 48.09484 | 19.23402 | 37881 ft | 425 kts | 304° |
| 2026-05-06 18:51 | 48.13156 | 19.16331 | 37890 ft | 425 kts | 304° |
| 2026-05-06 18:51 | 48.16737 | 19.09418 | 37881 ft | 425 kts | 304° |
| 2026-05-06 18:52 | 48.20356 | 19.02412 | 37871 ft | 425 kts | 304° |
| 2026-05-06 18:52 | 48.23967 | 18.95403 | 37867 ft | 425 kts | 304° |
| 2026-05-06 18:53 | 48.27577 | 18.88381 | 37875 ft | 425 kts | 304° |
| 2026-05-06 18:53 | 48.31183 | 18.81346 | 37865 ft | 425 kts | 304° |
| 2026-05-06 18:54 | 48.34757 | 18.74356 | 37879 ft | 425 kts | 303° |
| 2026-05-06 18:54 | 48.38358 | 18.67295 | 37855 ft | 425 kts | 303° |
| 2026-05-06 18:55 | 48.41949 | 18.60233 | 37856 ft | 425 kts | 303° |
| 2026-05-06 18:55 | 48.45537 | 18.53161 | 37851 ft | 425 kts | 303° |
| 2026-05-06 18:56 | 48.49116 | 18.46087 | 37850 ft | 425 kts | 304° |
| 2026-05-06 18:56 | 48.52690 | 18.39004 | 37835 ft | 425 kts | 303° |
| 2026-05-06 18:57 | 48.56265 | 18.31901 | 37830 ft | 424 kts | 303° |
| 2026-05-06 18:57 | 48.59831 | 18.24797 | 37811 ft | 423 kts | 303° |
| 2026-05-06 18:58 | 48.63367 | 18.17732 | 37816 ft | 423 kts | 303° |
| 2026-05-06 18:58 | 48.66914 | 18.10627 | 37838 ft | 422 kts | 303° |
| 2026-05-06 18:59 | 48.70443 | 18.03539 | 37816 ft | 421 kts | 303° |
| 2026-05-06 18:59 | 48.73963 | 17.96449 | 37814 ft | 421 kts | 302° |
| 2026-05-06 19:00 | 48.77470 | 17.89362 | 37794 ft | 421 kts | 302° |
| 2026-05-06 19:00 | 48.80979 | 17.82246 | 37801 ft | 420 kts | 302° |
| 2026-05-06 19:01 | 48.84474 | 17.75150 | 37803 ft | 420 kts | 302° |
| 2026-05-06 19:01 | 48.87631 | 17.67784 | 37779 ft | 411 kts | 291° |
| 2026-05-06 19:02 | 48.90109 | 17.59947 | 37789 ft | 412 kts | 291° |
| 2026-05-06 19:02 | 48.92552 | 17.52129 | 37779 ft | 414 kts | 291° |
| 2026-05-06 19:03 | 48.95044 | 17.44193 | 37776 ft | 416 kts | 291° |
| 2026-05-06 19:03 | 48.97551 | 17.36227 | 37768 ft | 417 kts | 291° |
| 2026-05-06 19:04 | 49.00051 | 17.28271 | 37771 ft | 418 kts | 291° |
| 2026-05-06 19:04 | 49.02555 | 17.20274 | 37771 ft | 419 kts | 291° |
| 2026-05-06 19:05 | 49.05068 | 17.12224 | 37764 ft | 420 kts | 291° |
| 2026-05-06 19:05 | 49.07560 | 17.04215 | 37767 ft | 420 kts | 291° |
| 2026-05-06 19:06 | 49.10065 | 16.96139 | 37774 ft | 420 kts | 291° |
| 2026-05-06 19:06 | 49.12556 | 16.88073 | 37314 ft | 424 kts | 290° |
| 2026-05-06 19:06 | 49.13808 | 16.84016 | 37005 ft | 419 kts | 290° |
| 2026-05-06 19:07 | 49.15043 | 16.80011 | 36580 ft | 416 kts | 290° |
| 2026-05-06 19:07 | 49.16276 | 16.76001 | 36194 ft | 415 kts | 290° |
| 2026-05-06 19:07 | 49.17495 | 16.72028 | 35820 ft | 417 kts | 290° |
| 2026-05-06 19:07 | 49.18736 | 16.67973 | 35408 ft | 419 kts | 290° |
| 2026-05-06 19:08 | 49.19969 | 16.63942 | 35004 ft | 418 kts | 290° |
| 2026-05-06 19:08 | 49.21196 | 16.59923 | 34632 ft | 418 kts | 290° |
| 2026-05-06 19:08 | 49.22418 | 16.55916 | 34233 ft | 417 kts | 289° |
| 2026-05-06 19:08 | 49.23655 | 16.51873 | 33823 ft | 416 kts | 289° |
| 2026-05-06 19:09 | 49.24871 | 16.47885 | 33359 ft | 415 kts | 289° |
| 2026-05-06 19:09 | 49.26093 | 16.43869 | 32950 ft | 412 kts | 288° |
| 2026-05-06 19:09 | 49.27293 | 16.39907 | 32545 ft | 411 kts | 289° |
| 2026-05-06 19:09 | 49.28499 | 16.35905 | 32130 ft | 417 kts | 289° |
| 2026-05-06 19:10 | 49.29719 | 16.31847 | 31730 ft | 423 kts | 289° |
| 2026-05-06 19:10 | 49.30959 | 16.27720 | 31314 ft | 426 kts | 290° |
| 2026-05-06 19:10 | 49.32201 | 16.23590 | 30896 ft | 427 kts | 289° |
| 2026-05-06 19:10 | 49.33445 | 16.19447 | 30503 ft | 428 kts | 288° |
| 2026-05-06 19:11 | 49.34682 | 16.15315 | 30086 ft | 427 kts | 289° |
| 2026-05-06 19:11 | 49.35916 | 16.11197 | 29641 ft | 419 kts | 289° |
| 2026-05-06 19:11 | 49.37153 | 16.07199 | 29137 ft | 415 kts | 292° |
| 2026-05-06 19:11 | 49.38424 | 16.03278 | 28775 ft | 404 kts | 288° |
| 2026-05-06 19:12 | 49.39528 | 15.99365 | 28367 ft | 396 kts | 287° |
| 2026-05-06 19:12 | 49.40618 | 15.95496 | 27960 ft | 394 kts | 288° |
| 2026-05-06 19:12 | 49.41760 | 15.91688 | 27592 ft | 399 kts | 290° |
| 2026-05-06 19:12 | 49.43025 | 15.87911 | 27167 ft | 404 kts | 292° |
| 2026-05-06 19:13 | 49.44352 | 15.84110 | 26751 ft | 401 kts | 292° |
| 2026-05-06 19:13 | 49.45677 | 15.80338 | 26367 ft | 398 kts | 292° |
| 2026-05-06 19:13 | 49.46974 | 15.76616 | 25959 ft | 396 kts | 292° |
| 2026-05-06 19:13 | 49.48268 | 15.72865 | 25555 ft | 394 kts | 291° |
| 2026-05-06 19:14 | 49.49535 | 15.69158 | 25162 ft | 392 kts | 291° |
| 2026-05-06 19:14 | 49.50792 | 15.65458 | 24777 ft | 390 kts | 292° |
| 2026-05-06 19:14 | 49.52042 | 15.61762 | 24376 ft | 389 kts | 292° |
| 2026-05-06 19:14 | 49.53292 | 15.58056 | 23986 ft | 388 kts | 291° |
| 2026-05-06 19:15 | 49.54533 | 15.54372 | 23581 ft | 388 kts | 291° |
| 2026-05-06 19:15 | 49.55778 | 15.50666 | 23172 ft | 388 kts | 292° |
| 2026-05-06 19:15 | 49.57015 | 15.46981 | 22735 ft | 387 kts | 291° |
| 2026-05-06 19:15 | 49.58248 | 15.43308 | 22335 ft | 385 kts | 291° |
| 2026-05-06 19:16 | 49.59469 | 15.39661 | 21921 ft | 382 kts | 292° |
| 2026-05-06 19:16 | 49.60683 | 15.36030 | 21514 ft | 380 kts | 291° |
| 2026-05-06 19:16 | 49.61888 | 15.32420 | 21121 ft | 377 kts | 292° |
| 2026-05-06 19:16 | 49.63085 | 15.28827 | 20734 ft | 375 kts | 292° |
| 2026-05-06 19:17 | 49.64265 | 15.25275 | 20352 ft | 372 kts | 291° |
| 2026-05-06 19:17 | 49.65444 | 15.21718 | 19966 ft | 370 kts | 292° |
| 2026-05-06 19:17 | 49.66607 | 15.18207 | 19592 ft | 367 kts | 292° |
| 2026-05-06 19:17 | 49.67771 | 15.14698 | 19223 ft | 366 kts | 292° |
| 2026-05-06 19:18 | 49.68538 | 15.12386 | 18966 ft | 364 kts | 292° |
| 2026-05-06 19:18 | 49.70152 | 15.07787 | 18467 ft | 366 kts | 299° |
| 2026-05-06 19:18 | 49.71787 | 15.04740 | 18079 ft | 372 kts | 312° |
| 2026-05-06 19:18 | 49.73739 | 15.02127 | 17671 ft | 373 kts | 315° |
| 2026-05-06 19:19 | 49.75721 | 14.99585 | 17263 ft | 370 kts | 316° |
| 2026-05-06 19:19 | 49.77701 | 14.97031 | 16869 ft | 367 kts | 315° |
| 2026-05-06 19:19 | 49.78982 | 14.95357 | 16605 ft | 364 kts | 315° |
| 2026-05-06 19:19 | 49.81554 | 14.91958 | 16129 ft | 360 kts | 315° |
| 2026-05-06 19:20 | 49.83440 | 14.89455 | 15779 ft | 357 kts | 315° |
| 2026-05-06 19:20 | 49.85324 | 14.86947 | 15417 ft | 355 kts | 315° |
| 2026-05-06 19:20 | 49.87188 | 14.84463 | 15057 ft | 353 kts | 316° |
| 2026-05-06 19:20 | 49.88423 | 14.82818 | 14819 ft | 352 kts | 315° |
| 2026-05-06 19:21 | 49.90272 | 14.80349 | 14471 ft | 351 kts | 316° |
| 2026-05-06 19:21 | 49.92744 | 14.77038 | 14001 ft | 349 kts | 315° |
| 2026-05-06 19:21 | 49.93952 | 14.75416 | 13768 ft | 349 kts | 316° |
| 2026-05-06 19:21 | 49.96417 | 14.72102 | 13245 ft | 349 kts | 315° |
| 2026-05-06 19:22 | 49.97631 | 14.70471 | 13015 ft | 348 kts | 316° |
| 2026-05-06 19:22 | 49.99453 | 14.68027 | 12792 ft | 342 kts | 316° |
| 2026-05-06 19:22 | 50.01722 | 14.64783 | 12755 ft | 336 kts | 307° |
| 2026-05-06 19:22 | 50.02700 | 14.62884 | 12790 ft | 335 kts | 304° |
| 2026-05-06 19:23 | 50.04075 | 14.60032 | 12775 ft | 336 kts | 303° |
| 2026-05-06 19:23 | 50.05463 | 14.57125 | 12770 ft | 335 kts | 303° |
| 2026-05-06 19:23 | 50.06859 | 14.54213 | 12771 ft | 334 kts | 304° |
| 2026-05-06 19:23 | 50.08260 | 14.51316 | 12772 ft | 334 kts | 304° |
| 2026-05-06 19:24 | 50.09661 | 14.48434 | 12776 ft | 335 kts | 304° |
| 2026-05-06 19:24 | 50.11077 | 14.45528 | 12613 ft | 336 kts | 304° |
| 2026-05-06 19:24 | 50.12481 | 14.42637 | 12348 ft | 332 kts | 304° |
| 2026-05-06 19:24 | 50.13859 | 14.39805 | 12070 ft | 325 kts | 304° |
| 2026-05-06 19:25 | 50.15268 | 14.37096 | 11811 ft | 319 kts | 306° |
| 2026-05-06 19:25 | 50.16685 | 14.34476 | 11564 ft | 313 kts | 307° |
| 2026-05-06 19:25 | 50.18074 | 14.31941 | 11433 ft | 303 kts | 307° |
| 2026-05-06 19:25 | 50.19434 | 14.29478 | 11288 ft | 294 kts | 307° |
| 2026-05-06 19:26 | 50.20755 | 14.27093 | 11056 ft | 289 kts | 307° |
| 2026-05-06 19:26 | 50.22049 | 14.24763 | 10989 ft | 278 kts | 307° |
| 2026-05-06 19:26 | 50.23300 | 14.22523 | 10917 ft | 269 kts | 307° |
| 2026-05-06 19:26 | 50.24510 | 14.20367 | 10841 ft | 259 kts | 307° |
| 2026-05-06 19:27 | 50.25688 | 14.18278 | 10662 ft | 254 kts | 307° |
| 2026-05-06 19:27 | 50.26855 | 14.16211 | 10399 ft | 254 kts | 307° |
| 2026-05-06 19:27 | 50.28018 | 14.14146 | 10133 ft | 253 kts | 307° |
| 2026-05-06 19:27 | 50.29181 | 14.12076 | 9868 ft | 253 kts | 307° |
| 2026-05-06 19:28 | 50.30342 | 14.10007 | 9617 ft | 252 kts | 307° |
| 2026-05-06 19:28 | 50.31444 | 14.07895 | 9307 ft | 248 kts | 296° |
| 2026-05-06 19:28 | 50.31911 | 14.05385 | 8990 ft | 239 kts | 266° |
| 2026-05-06 19:28 | 50.31495 | 14.02929 | 8707 ft | 233 kts | 240° |
| 2026-05-06 19:29 | 50.30637 | 14.00797 | 8432 ft | 232 kts | 236° |
| 2026-05-06 19:29 | 50.29744 | 13.98761 | 8361 ft | 222 kts | 235° |
| 2026-05-06 19:29 | 50.28883 | 13.96819 | 8249 ft | 211 kts | 235° |
| 2026-05-06 19:29 | 50.28068 | 13.94989 | 8146 ft | 200 kts | 233° |
| 2026-05-06 19:30 | 50.27055 | 13.93643 | 7979 ft | 190 kts | 201° |
| 2026-05-06 19:30 | 50.25752 | 13.93553 | 7687 ft | 193 kts | 165° |
| 2026-05-06 19:30 | 50.24537 | 13.94460 | 7402 ft | 194 kts | 156° |
| 2026-05-06 19:30 | 50.23372 | 13.95496 | 7030 ft | 191 kts | 153° |
| 2026-05-06 19:31 | 50.22435 | 13.96984 | 6541 ft | 199 kts | 120° |
| 2026-05-06 19:31 | 50.22081 | 13.99050 | 6071 ft | 201 kts | 98° |
| 2026-05-06 19:31 | 50.21136 | 14.02920 | 5099 ft | 193 kts | 131° |
| 2026-05-06 19:32 | 50.20336 | 14.04622 | 4595 ft | 195 kts | 128° |
| 2026-05-06 19:32 | 50.19542 | 14.06346 | 4125 ft | 193 kts | 127° |
| 2026-05-06 19:32 | 50.18766 | 14.08020 | 3809 ft | 190 kts | 127° |
| 2026-05-06 19:32 | 50.17977 | 14.09669 | 3545 ft | 191 kts | 127° |
| 2026-05-06 19:33 | 50.17194 | 14.11288 | 3277 ft | 183 kts | 127° |
| 2026-05-06 19:33 | 50.16449 | 14.12830 | 3047 ft | 172 kts | 127° |
| 2026-05-06 19:33 | 50.15751 | 14.14275 | 2852 ft | 167 kts | 126° |
| 2026-05-06 19:33 | 50.15052 | 14.15723 | 2618 ft | 167 kts | 125° |
| 2026-05-06 19:34 | 50.14357 | 14.17162 | 2389 ft | 161 kts | 125° |
| 2026-05-06 19:34 | 50.13725 | 14.18475 | 2188 ft | 144 kts | 124° |
| 2026-05-06 19:34 | 50.13139 | 14.19690 | 1996 ft | 138 kts | 124° |
| 2026-05-06 19:34 | 50.12557 | 14.20904 | 1781 ft | 142 kts | 125° |
| 2026-05-06 19:35 | 50.11933 | 14.22121 | 1619 ft | 146 kts | 129° |
| 2026-05-06 19:35 | 50.11333 | 14.23423 | 1416 ft | 148 kts | 121° |
| 2026-05-06 19:35 | 50.10714 | 14.24735 | 1197 ft | 152 kts | 125° |
| 2026-05-06 19:35 | 50.10123 | 14.25937 | 1188 ft | 120 kts | 129° |
| 2026-05-06 19:36 | 50.09712 | 14.26789 | 1207 ft | 78 kts | 126° |
| 2026-05-06 19:36 | 50.09462 | 14.27304 | 1206 ft | 40 kts | 126° |
| 2026-05-06 19:36 | 50.09464 | 14.27481 | 1209 ft | 16 kts | 36° |
| 2026-05-06 19:36 | 50.09518 | 14.27542 | 1211 ft | 0 kts | 36° |
| 2026-05-06 19:37 | 50.09522 | 14.27547 | 1211 ft | 2 kts | 36° |
| 2026-05-06 19:38 | 50.09545 | 14.27573 | 1212 ft | 7 kts | 36° |
| 2026-05-06 19:38 | 50.09598 | 14.27636 | 1210 ft | 13 kts | 37° |
| 2026-05-06 19:38 | 50.09680 | 14.27577 | 1205 ft | 18 kts | 316° |
| 2026-05-06 19:38 | 50.09781 | 14.27423 | 1204 ft | 22 kts | 315° |
| 2026-05-06 19:39 | 50.09886 | 14.27248 | 1201 ft | 22 kts | 309° |
| 2026-05-06 19:39 | 50.09977 | 14.27058 | 1197 ft | 21 kts | 307° |
| 2026-05-06 19:39 | 50.10069 | 14.26867 | 1188 ft | 24 kts | 308° |
| 2026-05-06 19:39 | 50.10177 | 14.26645 | 1176 ft | 24 kts | 307° |
| 2026-05-06 19:40 | 50.10247 | 14.26530 | 1176 ft | 10 kts | 357° |
| 2026-05-06 19:40 | 50.10317 | 14.26588 | 1173 ft | 12 kts | 34° |
| 2026-05-06 19:40 | 50.10361 | 14.26616 | 1172 ft | 3 kts | 348° |
| 2026-05-06 19:40 | 50.10381 | 14.26610 | 1173 ft | 3 kts | 11° |
| 2026-05-06 19:41 | 50.10400 | 14.26624 | 1172 ft | 3 kts | 27° |
| 2026-05-06 19:41 | 50.10409 | 14.26633 | 1173 ft | 0 kts | 34° |
| 2026-05-06 19:41 | 50.10411 | 14.26635 | 1173 ft | 1 kts | 34° |
| 2026-05-06 19:41 | 50.10411 | 14.26636 | 1173 ft | 0 kts | 34° |